sensor_id;sensor_type;location;lat;lon;timestamp;P1;durP1;ratioP1;P2;durP2;ratioP2
18340;SDS011;9296;48.084;16.352;2022-07-06T00:01:24;5.60;;;5.10;;
18340;SDS011;9296;48.084;16.352;2022-07-06T00:03:52;5.45;;;4.95;;
18340;SDS011;9296;48.084;16.352;2022-07-06T00:06:19;6.07;;;5.40;;
18340;SDS011;9296;48.084;16.352;2022-07-06T00:08:46;6.20;;;5.60;;
18340;SDS011;9296;48.084;16.352;2022-07-06T00:11:13;5.38;;;4.97;;
18340;SDS011;9296;48.084;16.352;2022-07-06T00:13:42;6.57;;;5.45;;
18340;SDS011;9296;48.084;16.352;2022-07-06T00:16:09;7.03;;;5.78;;
18340;SDS011;9296;48.084;16.352;2022-07-06T00:18:36;7.43;;;5.93;;
18340;SDS011;9296;48.084;16.352;2022-07-06T00:21:04;6.28;;;5.70;;
18340;SDS011;9296;48.084;16.352;2022-07-06T00:26:34;7.00;;;6.40;;
18340;SDS011;9296;48.084;16.352;2022-07-06T00:29:03;6.75;;;6.10;;
18340;SDS011;9296;48.084;16.352;2022-07-06T00:31:30;7.90;;;6.47;;
18340;SDS011;9296;48.084;16.352;2022-07-06T00:33:57;7.22;;;6.50;;
18340;SDS011;9296;48.084;16.352;2022-07-06T00:36:24;7.55;;;6.85;;
18340;SDS011;9296;48.084;16.352;2022-07-06T00:39:07;6.82;;;6.15;;
18340;SDS011;9296;48.084;16.352;2022-07-06T00:41:34;7.13;;;6.40;;
18340;SDS011;9296;48.084;16.352;2022-07-06T00:44:06;7.70;;;7.00;;
18340;SDS011;9296;48.084;16.352;2022-07-06T00:46:34;8.55;;;6.80;;
18340;SDS011;9296;48.084;16.352;2022-07-06T00:49:01;8.13;;;7.43;;
18340;SDS011;9296;48.084;16.352;2022-07-06T00:51:29;8.07;;;7.38;;
18340;SDS011;9296;48.084;16.352;2022-07-06T00:57:00;8.93;;;7.80;;
18340;SDS011;9296;48.084;16.352;2022-07-06T00:59:29;7.90;;;7.13;;
18340;SDS011;9296;48.084;16.352;2022-07-06T01:01:56;8.18;;;7.47;;
18340;SDS011;9296;48.084;16.352;2022-07-06T01:04:23;8.52;;;7.60;;
18340;SDS011;9296;48.084;16.352;2022-07-06T01:09:54;7.85;;;7.15;;
18340;SDS011;9296;48.084;16.352;2022-07-06T01:12:21;8.10;;;7.30;;
18340;SDS011;9296;48.084;16.352;2022-07-06T01:14:50;7.78;;;7.07;;
18340;SDS011;9296;48.084;16.352;2022-07-06T01:17:17;7.18;;;6.55;;
18340;SDS011;9296;48.084;16.352;2022-07-06T01:19:44;7.15;;;6.50;;
18340;SDS011;9296;48.084;16.352;2022-07-06T01:22:13;7.47;;;6.78;;
18340;SDS011;9296;48.084;16.352;2022-07-06T01:24:40;7.85;;;7.10;;
18340;SDS011;9296;48.084;16.352;2022-07-06T01:27:08;7.38;;;6.78;;
18340;SDS011;9296;48.084;16.352;2022-07-06T01:29:35;8.10;;;7.40;;
18340;SDS011;9296;48.084;16.352;2022-07-06T01:32:03;7.15;;;6.55;;
18340;SDS011;9296;48.084;16.352;2022-07-06T01:34:33;7.68;;;6.97;;
18340;SDS011;9296;48.084;16.352;2022-07-06T01:37:01;7.43;;;6.65;;
18340;SDS011;9296;48.084;16.352;2022-07-06T01:39:29;6.95;;;6.38;;
18340;SDS011;9296;48.084;16.352;2022-07-06T01:41:57;7.53;;;6.68;;
18340;SDS011;9296;48.084;16.352;2022-07-06T01:44:24;7.45;;;6.63;;
18340;SDS011;9296;48.084;16.352;2022-07-06T01:46:51;8.52;;;7.10;;
18340;SDS011;9296;48.084;16.352;2022-07-06T01:49:18;7.78;;;7.05;;
18340;SDS011;9296;48.084;16.352;2022-07-06T01:51:45;7.43;;;6.82;;
18340;SDS011;9296;48.084;16.352;2022-07-06T01:57:18;7.68;;;7.03;;
18340;SDS011;9296;48.084;16.352;2022-07-06T01:59:45;7.78;;;7.18;;
18340;SDS011;9296;48.084;16.352;2022-07-06T02:02:12;8.05;;;7.30;;
18340;SDS011;9296;48.084;16.352;2022-07-06T02:04:40;8.18;;;7.32;;
18340;SDS011;9296;48.084;16.352;2022-07-06T02:13:15;8.20;;;7.50;;
18340;SDS011;9296;48.084;16.352;2022-07-06T02:15:43;8.23;;;7.53;;
18340;SDS011;9296;48.084;16.352;2022-07-06T02:18:10;7.93;;;7.22;;
18340;SDS011;9296;48.084;16.352;2022-07-06T02:20:37;8.50;;;7.63;;
18340;SDS011;9296;48.084;16.352;2022-07-06T02:23:05;7.00;;;6.40;;
18340;SDS011;9296;48.084;16.352;2022-07-06T02:25:32;8.02;;;7.18;;
18340;SDS011;9296;48.084;16.352;2022-07-06T02:27:59;7.55;;;6.90;;
18340;SDS011;9296;48.084;16.352;2022-07-06T02:30:28;7.65;;;7.03;;
18340;SDS011;9296;48.084;16.352;2022-07-06T02:32:55;7.63;;;6.90;;
18340;SDS011;9296;48.084;16.352;2022-07-06T02:35:22;7.47;;;6.78;;
18340;SDS011;9296;48.084;16.352;2022-07-06T02:44:05;6.25;;;5.75;;
18340;SDS011;9296;48.084;16.352;2022-07-06T02:46:35;6.88;;;6.18;;
18340;SDS011;9296;48.084;16.352;2022-07-06T02:49:02;6.95;;;5.88;;
18340;SDS011;9296;48.084;16.352;2022-07-06T02:51:30;6.55;;;6.05;;
18340;SDS011;9296;48.084;16.352;2022-07-06T02:57:00;7.43;;;6.75;;
18340;SDS011;9296;48.084;16.352;2022-07-06T02:59:28;7.80;;;7.10;;
18340;SDS011;9296;48.084;16.352;2022-07-06T03:01:56;8.13;;;7.20;;
18340;SDS011;9296;48.084;16.352;2022-07-06T03:04:23;8.60;;;7.85;;
18340;SDS011;9296;48.084;16.352;2022-07-06T03:06:51;8.77;;;7.90;;
18340;SDS011;9296;48.084;16.352;2022-07-06T03:12:21;9.75;;;8.85;;
18340;SDS011;9296;48.084;16.352;2022-07-06T03:14:49;9.07;;;8.38;;
18340;SDS011;9296;48.084;16.352;2022-07-06T03:17:17;9.10;;;8.35;;
18340;SDS011;9296;48.084;16.352;2022-07-06T03:19:46;9.60;;;8.60;;
18340;SDS011;9296;48.084;16.352;2022-07-06T03:22:13;9.57;;;8.70;;
18340;SDS011;9296;48.084;16.352;2022-07-06T03:27:44;9.10;;;8.27;;
18340;SDS011;9296;48.084;16.352;2022-07-06T03:30:12;9.60;;;8.68;;
18340;SDS011;9296;48.084;16.352;2022-07-06T03:32:41;10.20;;;9.15;;
18340;SDS011;9296;48.084;16.352;2022-07-06T03:35:08;9.80;;;8.80;;
18340;SDS011;9296;48.084;16.352;2022-07-06T03:37:36;10.10;;;9.07;;
18340;SDS011;9296;48.084;16.352;2022-07-06T03:40:03;11.38;;;9.32;;
18340;SDS011;9296;48.084;16.352;2022-07-06T03:42:31;9.82;;;8.75;;
18340;SDS011;9296;48.084;16.352;2022-07-06T03:44:58;10.95;;;8.90;;
18340;SDS011;9296;48.084;16.352;2022-07-06T03:47:25;17.75;;;9.52;;
18340;SDS011;9296;48.084;16.352;2022-07-06T03:49:54;10.55;;;9.60;;
18340;SDS011;9296;48.084;16.352;2022-07-06T03:52:21;11.10;;;9.38;;
18340;SDS011;9296;48.084;16.352;2022-07-06T03:57:34;9.48;;;8.55;;
18340;SDS011;9296;48.084;16.352;2022-07-06T04:00:01;9.75;;;8.88;;
18340;SDS011;9296;48.084;16.352;2022-07-06T04:02:28;9.18;;;8.27;;
18340;SDS011;9296;48.084;16.352;2022-07-06T04:04:57;9.43;;;8.10;;
18340;SDS011;9296;48.084;16.352;2022-07-06T04:07:24;8.25;;;7.55;;
18340;SDS011;9296;48.084;16.352;2022-07-06T04:12:55;7.10;;;6.50;;
18340;SDS011;9296;48.084;16.352;2022-07-06T04:15:22;6.18;;;5.68;;
18340;SDS011;9296;48.084;16.352;2022-07-06T04:17:49;7.05;;;6.28;;
18340;SDS011;9296;48.084;16.352;2022-07-06T04:20:23;6.63;;;5.97;;
18340;SDS011;9296;48.084;16.352;2022-07-06T04:22:51;6.65;;;5.88;;
18340;SDS011;9296;48.084;16.352;2022-07-06T04:25:18;6.57;;;5.97;;
18340;SDS011;9296;48.084;16.352;2022-07-06T04:27:46;6.40;;;5.90;;
18340;SDS011;9296;48.084;16.352;2022-07-06T04:30:13;6.25;;;5.38;;
18340;SDS011;9296;48.084;16.352;2022-07-06T04:32:40;6.30;;;5.80;;
18340;SDS011;9296;48.084;16.352;2022-07-06T04:35:08;6.07;;;5.47;;
18340;SDS011;9296;48.084;16.352;2022-07-06T04:37:36;5.85;;;5.20;;
18340;SDS011;9296;48.084;16.352;2022-07-06T04:42:49;4.93;;;4.53;;
18340;SDS011;9296;48.084;16.352;2022-07-06T04:45:17;4.95;;;4.55;;
18340;SDS011;9296;48.084;16.352;2022-07-06T04:47:44;6.63;;;4.40;;
18340;SDS011;9296;48.084;16.352;2022-07-06T04:50:11;5.05;;;4.55;;
18340;SDS011;9296;48.084;16.352;2022-07-06T04:52:40;6.68;;;4.15;;
18340;SDS011;9296;48.084;16.352;2022-07-06T04:58:29;5.03;;;4.03;;
18340;SDS011;9296;48.084;16.352;2022-07-06T05:00:56;7.63;;;6.00;;
18340;SDS011;9296;48.084;16.352;2022-07-06T05:03:23;7.40;;;6.25;;
18340;SDS011;9296;48.084;16.352;2022-07-06T05:05:50;7.45;;;6.30;;
18340;SDS011;9296;48.084;16.352;2022-07-06T05:14:26;9.13;;;6.05;;
18340;SDS011;9296;48.084;16.352;2022-07-06T05:16:53;6.82;;;6.18;;
18340;SDS011;9296;48.084;16.352;2022-07-06T05:19:20;8.30;;;5.60;;
18340;SDS011;9296;48.084;16.352;2022-07-06T05:21:48;6.05;;;5.40;;
18340;SDS011;9296;48.084;16.352;2022-07-06T05:30:13;5.28;;;4.85;;
18340;SDS011;9296;48.084;16.352;2022-07-06T05:32:54;6.35;;;4.57;;
18340;SDS011;9296;48.084;16.352;2022-07-06T05:35:21;5.45;;;4.10;;
18340;SDS011;9296;48.084;16.352;2022-07-06T05:37:49;4.20;;;3.25;;
18340;SDS011;9296;48.084;16.352;2022-07-06T05:40:16;4.07;;;3.63;;
18340;SDS011;9296;48.084;16.352;2022-07-06T05:42:44;4.60;;;4.20;;
18340;SDS011;9296;48.084;16.352;2022-07-06T05:45:23;5.43;;;4.93;;
18340;SDS011;9296;48.084;16.352;2022-07-06T05:47:50;4.88;;;4.35;;
18340;SDS011;9296;48.084;16.352;2022-07-06T05:50:35;6.38;;;4.00;;
18340;SDS011;9296;48.084;16.352;2022-07-06T05:56:06;5.57;;;4.63;;
18340;SDS011;9296;48.084;16.352;2022-07-06T05:58:33;4.88;;;4.45;;
18340;SDS011;9296;48.084;16.352;2022-07-06T06:01:02;6.45;;;4.88;;
18340;SDS011;9296;48.084;16.352;2022-07-06T06:03:31;5.70;;;5.10;;
18340;SDS011;9296;48.084;16.352;2022-07-06T06:05:59;5.25;;;4.75;;
18340;SDS011;9296;48.084;16.352;2022-07-06T06:14:33;5.55;;;4.35;;
18340;SDS011;9296;48.084;16.352;2022-07-06T06:17:01;4.97;;;4.47;;
18340;SDS011;9296;48.084;16.352;2022-07-06T06:19:33;4.68;;;4.22;;
18340;SDS011;9296;48.084;16.352;2022-07-06T06:22:01;6.50;;;4.00;;
18340;SDS011;9296;48.084;16.352;2022-07-06T06:27:38;5.13;;;3.85;;
18340;SDS011;9296;48.084;16.352;2022-07-06T06:30:06;6.00;;;3.63;;
18340;SDS011;9296;48.084;16.352;2022-07-06T06:32:35;3.78;;;3.40;;
18340;SDS011;9296;48.084;16.352;2022-07-06T06:35:03;8.07;;;2.90;;
18340;SDS011;9296;48.084;16.352;2022-07-06T06:37:30;3.08;;;2.60;;
18340;SDS011;9296;48.084;16.352;2022-07-06T06:42:45;3.25;;;2.90;;
18340;SDS011;9296;48.084;16.352;2022-07-06T06:45:12;4.10;;;3.20;;
18340;SDS011;9296;48.084;16.352;2022-07-06T06:47:41;3.72;;;2.80;;
18340;SDS011;9296;48.084;16.352;2022-07-06T06:50:08;5.75;;;3.10;;
18340;SDS011;9296;48.084;16.352;2022-07-06T06:52:35;3.22;;;2.80;;
18340;SDS011;9296;48.084;16.352;2022-07-06T06:58:06;4.18;;;2.75;;
18340;SDS011;9296;48.084;16.352;2022-07-06T07:00:33;4.05;;;2.88;;
18340;SDS011;9296;48.084;16.352;2022-07-06T07:03:02;4.30;;;2.63;;
18340;SDS011;9296;48.084;16.352;2022-07-06T07:05:29;3.10;;;2.90;;
18340;SDS011;9296;48.084;16.352;2022-07-06T07:07:57;5.97;;;2.72;;
18340;SDS011;9296;48.084;16.352;2022-07-06T07:13:27;4.70;;;2.78;;
18340;SDS011;9296;48.084;16.352;2022-07-06T07:15:55;3.08;;;2.60;;
18340;SDS011;9296;48.084;16.352;2022-07-06T07:18:26;2.88;;;2.55;;
18340;SDS011;9296;48.084;16.352;2022-07-06T07:20:55;3.88;;;2.65;;
18340;SDS011;9296;48.084;16.352;2022-07-06T07:23:23;3.42;;;2.80;;
18340;SDS011;9296;48.084;16.352;2022-07-06T07:28:53;3.10;;;2.80;;
18340;SDS011;9296;48.084;16.352;2022-07-06T07:31:20;4.05;;;2.78;;
18340;SDS011;9296;48.084;16.352;2022-07-06T07:33:55;4.28;;;2.85;;
18340;SDS011;9296;48.084;16.352;2022-07-06T07:36:23;3.33;;;2.72;;
18340;SDS011;9296;48.084;16.352;2022-07-06T07:39:09;4.30;;;2.75;;
18340;SDS011;9296;48.084;16.352;2022-07-06T07:41:36;3.50;;;2.70;;
18340;SDS011;9296;48.084;16.352;2022-07-06T07:44:03;3.50;;;2.80;;
18340;SDS011;9296;48.084;16.352;2022-07-06T07:46:30;4.10;;;2.88;;
18340;SDS011;9296;48.084;16.352;2022-07-06T07:48:59;2.90;;;2.70;;
18340;SDS011;9296;48.084;16.352;2022-07-06T07:51:26;2.85;;;2.60;;
18340;SDS011;9296;48.084;16.352;2022-07-06T07:57:15;4.10;;;2.90;;
18340;SDS011;9296;48.084;16.352;2022-07-06T07:59:42;3.28;;;3.08;;
18340;SDS011;9296;48.084;16.352;2022-07-06T08:02:09;3.42;;;3.00;;
18340;SDS011;9296;48.084;16.352;2022-07-06T08:04:37;3.67;;;3.22;;
18340;SDS011;9296;48.084;16.352;2022-07-06T08:07:04;3.33;;;3.10;;
18340;SDS011;9296;48.084;16.352;2022-07-06T08:15:33;2.80;;;2.60;;
18340;SDS011;9296;48.084;16.352;2022-07-06T08:18:00;5.30;;;3.10;;
18340;SDS011;9296;48.084;16.352;2022-07-06T08:20:29;3.28;;;2.72;;
18340;SDS011;9296;48.084;16.352;2022-07-06T08:22:57;5.30;;;2.70;;
18340;SDS011;9296;48.084;16.352;2022-07-06T08:28:49;3.03;;;2.53;;
18340;SDS011;9296;48.084;16.352;2022-07-06T08:31:16;3.47;;;2.55;;
18340;SDS011;9296;48.084;16.352;2022-07-06T08:33:43;2.53;;;2.33;;
18340;SDS011;9296;48.084;16.352;2022-07-06T08:36:12;3.42;;;2.67;;
18340;SDS011;9296;48.084;16.352;2022-07-06T08:38:39;4.25;;;2.50;;
18340;SDS011;9296;48.084;16.352;2022-07-06T08:44:38;4.68;;;2.90;;
18340;SDS011;9296;48.084;16.352;2022-07-06T08:47:05;3.80;;;2.53;;
18340;SDS011;9296;48.084;16.352;2022-07-06T08:49:36;2.60;;;2.40;;
18340;SDS011;9296;48.084;16.352;2022-07-06T08:52:05;4.75;;;2.72;;
18340;SDS011;9296;48.084;16.352;2022-07-06T09:00:49;5.40;;;2.65;;
18340;SDS011;9296;48.084;16.352;2022-07-06T09:03:16;4.75;;;2.88;;
18340;SDS011;9296;48.084;16.352;2022-07-06T09:05:44;3.85;;;2.35;;
18340;SDS011;9296;48.084;16.352;2022-07-06T09:08:13;2.72;;;2.53;;
18340;SDS011;9296;48.084;16.352;2022-07-06T09:10:40;2.95;;;2.67;;
18340;SDS011;9296;48.084;16.352;2022-07-06T09:13:08;5.03;;;2.80;;
18340;SDS011;9296;48.084;16.352;2022-07-06T09:15:35;4.00;;;2.80;;
18340;SDS011;9296;48.084;16.352;2022-07-06T09:18:04;2.63;;;2.42;;
18340;SDS011;9296;48.084;16.352;2022-07-06T09:20:32;2.88;;;2.65;;
18340;SDS011;9296;48.084;16.352;2022-07-06T09:23:01;2.78;;;2.55;;
18340;SDS011;9296;48.084;16.352;2022-07-06T09:25:31;4.22;;;2.65;;
18340;SDS011;9296;48.084;16.352;2022-07-06T09:27:58;3.35;;;3.05;;
18340;SDS011;9296;48.084;16.352;2022-07-06T09:30:27;3.03;;;2.75;;
18340;SDS011;9296;48.084;16.352;2022-07-06T09:32:59;3.78;;;3.00;;
18340;SDS011;9296;48.084;16.352;2022-07-06T09:35:26;2.78;;;2.35;;
18340;SDS011;9296;48.084;16.352;2022-07-06T09:38:01;3.13;;;2.70;;
18340;SDS011;9296;48.084;16.352;2022-07-06T09:43:36;6.32;;;2.90;;
18340;SDS011;9296;48.084;16.352;2022-07-06T09:46:04;2.88;;;2.60;;
18340;SDS011;9296;48.084;16.352;2022-07-06T09:48:32;3.60;;;2.72;;
18340;SDS011;9296;48.084;16.352;2022-07-06T09:51:00;3.17;;;2.72;;
18340;SDS011;9296;48.084;16.352;2022-07-06T09:53:28;2.80;;;2.60;;
18340;SDS011;9296;48.084;16.352;2022-07-06T09:59:19;3.42;;;2.38;;
18340;SDS011;9296;48.084;16.352;2022-07-06T10:01:50;3.05;;;2.80;;
18340;SDS011;9296;48.084;16.352;2022-07-06T10:04:19;4.28;;;2.58;;
18340;SDS011;9296;48.084;16.352;2022-07-06T10:06:47;3.00;;;2.63;;
18340;SDS011;9296;48.084;16.352;2022-07-06T10:09:15;4.05;;;2.67;;
18340;SDS011;9296;48.084;16.352;2022-07-06T10:15:07;5.75;;;2.53;;
18340;SDS011;9296;48.084;16.352;2022-07-06T10:17:35;3.00;;;2.70;;
18340;SDS011;9296;48.084;16.352;2022-07-06T10:20:04;3.33;;;2.88;;
18340;SDS011;9296;48.084;16.352;2022-07-06T10:22:32;2.95;;;2.75;;
18340;SDS011;9296;48.084;16.352;2022-07-06T10:28:05;3.67;;;2.60;;
18340;SDS011;9296;48.084;16.352;2022-07-06T10:30:41;3.47;;;2.92;;
18340;SDS011;9296;48.084;16.352;2022-07-06T10:33:09;3.42;;;2.58;;
18340;SDS011;9296;48.084;16.352;2022-07-06T10:35:39;3.13;;;2.90;;
18340;SDS011;9296;48.084;16.352;2022-07-06T10:38:07;4.18;;;3.00;;
18340;SDS011;9296;48.084;16.352;2022-07-06T10:40:35;3.22;;;2.90;;
18340;SDS011;9296;48.084;16.352;2022-07-06T10:43:20;4.00;;;3.60;;
18340;SDS011;9296;48.084;16.352;2022-07-06T10:45:52;3.70;;;3.40;;
18340;SDS011;9296;48.084;16.352;2022-07-06T10:48:20;3.83;;;3.53;;
18340;SDS011;9296;48.084;16.352;2022-07-06T10:50:48;5.22;;;4.30;;
18340;SDS011;9296;48.084;16.352;2022-07-06T10:53:16;5.25;;;3.20;;
18340;SDS011;9296;48.084;16.352;2022-07-06T10:58:48;3.83;;;3.10;;
18340;SDS011;9296;48.084;16.352;2022-07-06T11:01:18;3.80;;;3.20;;
18340;SDS011;9296;48.084;16.352;2022-07-06T11:03:46;4.35;;;3.08;;
18340;SDS011;9296;48.084;16.352;2022-07-06T11:06:14;3.35;;;2.95;;
18340;SDS011;9296;48.084;16.352;2022-07-06T11:08:46;4.38;;;2.75;;
18340;SDS011;9296;48.084;16.352;2022-07-06T11:14:17;4.47;;;3.20;;
18340;SDS011;9296;48.084;16.352;2022-07-06T11:17:00;5.38;;;3.55;;
18340;SDS011;9296;48.084;16.352;2022-07-06T11:19:29;5.22;;;3.17;;
18340;SDS011;9296;48.084;16.352;2022-07-06T11:21:57;7.43;;;3.38;;
18340;SDS011;9296;48.084;16.352;2022-07-06T11:24:25;6.00;;;3.47;;
18340;SDS011;9296;48.084;16.352;2022-07-06T11:26:54;3.17;;;2.78;;
18340;SDS011;9296;48.084;16.352;2022-07-06T11:29:22;4.35;;;2.85;;
18340;SDS011;9296;48.084;16.352;2022-07-06T11:31:50;3.90;;;2.60;;
18340;SDS011;9296;48.084;16.352;2022-07-06T11:34:20;3.65;;;2.90;;
18340;SDS011;9296;48.084;16.352;2022-07-06T11:36:47;3.00;;;2.55;;
18340;SDS011;9296;48.084;16.352;2022-07-06T11:39:15;3.00;;;2.70;;
18340;SDS011;9296;48.084;16.352;2022-07-06T11:44:45;4.90;;;2.38;;
18340;SDS011;9296;48.084;16.352;2022-07-06T11:47:15;2.83;;;2.05;;
18340;SDS011;9296;48.084;16.352;2022-07-06T11:49:43;3.08;;;2.35;;
18340;SDS011;9296;48.084;16.352;2022-07-06T11:52:17;2.75;;;2.05;;
18340;SDS011;9296;48.084;16.352;2022-07-06T11:54:44;2.38;;;2.17;;
18340;SDS011;9296;48.084;16.352;2022-07-06T11:57:11;2.60;;;2.30;;
18340;SDS011;9296;48.084;16.352;2022-07-06T11:59:39;3.28;;;2.63;;
18340;SDS011;9296;48.084;16.352;2022-07-06T12:02:08;3.35;;;2.60;;
18340;SDS011;9296;48.084;16.352;2022-07-06T12:04:36;2.85;;;2.55;;
18340;SDS011;9296;48.084;16.352;2022-07-06T12:07:05;4.38;;;2.55;;
18340;SDS011;9296;48.084;16.352;2022-07-06T12:09:33;3.75;;;3.10;;
18340;SDS011;9296;48.084;16.352;2022-07-06T12:15:04;2.85;;;2.65;;
18340;SDS011;9296;48.084;16.352;2022-07-06T12:17:32;3.15;;;2.85;;
18340;SDS011;9296;48.084;16.352;2022-07-06T12:20:00;5.32;;;3.20;;
18340;SDS011;9296;48.084;16.352;2022-07-06T12:22:29;4.65;;;3.17;;
18340;SDS011;9296;48.084;16.352;2022-07-06T12:24:56;3.50;;;3.20;;
18340;SDS011;9296;48.084;16.352;2022-07-06T12:27:23;4.10;;;3.28;;
18340;SDS011;9296;48.084;16.352;2022-07-06T12:29:50;3.97;;;3.10;;
18340;SDS011;9296;48.084;16.352;2022-07-06T12:32:18;3.17;;;2.97;;
18340;SDS011;9296;48.084;16.352;2022-07-06T12:34:47;6.13;;;3.17;;
18340;SDS011;9296;48.084;16.352;2022-07-06T12:37:14;4.03;;;3.20;;
18340;SDS011;9296;48.084;16.352;2022-07-06T12:39:46;3.25;;;2.75;;
18340;SDS011;9296;48.084;16.352;2022-07-06T12:42:33;3.45;;;3.15;;
18340;SDS011;9296;48.084;16.352;2022-07-06T12:45:00;3.10;;;2.90;;
18340;SDS011;9296;48.084;16.352;2022-07-06T12:47:27;4.40;;;2.88;;
18340;SDS011;9296;48.084;16.352;2022-07-06T12:50:04;3.85;;;3.00;;
18340;SDS011;9296;48.084;16.352;2022-07-06T12:52:32;3.08;;;2.85;;
18340;SDS011;9296;48.084;16.352;2022-07-06T12:55:00;3.58;;;2.72;;
18340;SDS011;9296;48.084;16.352;2022-07-06T12:57:41;3.45;;;2.60;;
18340;SDS011;9296;48.084;16.352;2022-07-06T13:00:09;2.67;;;2.40;;
18340;SDS011;9296;48.084;16.352;2022-07-06T13:02:36;2.67;;;2.47;;
18340;SDS011;9296;48.084;16.352;2022-07-06T13:05:05;2.90;;;2.70;;
18340;SDS011;9296;48.084;16.352;2022-07-06T13:07:33;2.80;;;2.55;;
18340;SDS011;9296;48.084;16.352;2022-07-06T13:16:17;2.72;;;2.20;;
18340;SDS011;9296;48.084;16.352;2022-07-06T13:18:44;2.25;;;1.90;;
18340;SDS011;9296;48.084;16.352;2022-07-06T13:21:45;2.60;;;2.33;;
18340;SDS011;9296;48.084;16.352;2022-07-06T13:24:13;2.50;;;2.30;;
18340;SDS011;9296;48.084;16.352;2022-07-06T13:29:44;2.58;;;2.38;;
18340;SDS011;9296;48.084;16.352;2022-07-06T13:32:12;3.05;;;2.50;;
18340;SDS011;9296;48.084;16.352;2022-07-06T13:34:40;4.50;;;2.67;;
18340;SDS011;9296;48.084;16.352;2022-07-06T13:37:07;3.95;;;2.60;;
18340;SDS011;9296;48.084;16.352;2022-07-06T13:39:34;4.63;;;3.58;;
18340;SDS011;9296;48.084;16.352;2022-07-06T13:42:02;3.83;;;3.10;;
18340;SDS011;9296;48.084;16.352;2022-07-06T13:44:29;3.78;;;2.90;;
18340;SDS011;9296;48.084;16.352;2022-07-06T13:46:56;3.17;;;2.40;;
18340;SDS011;9296;48.084;16.352;2022-07-06T13:49:25;3.63;;;2.55;;
18340;SDS011;9296;48.084;16.352;2022-07-06T13:51:53;5.70;;;3.15;;
18340;SDS011;9296;48.084;16.352;2022-07-06T13:54:27;4.25;;;2.78;;
18340;SDS011;9296;48.084;16.352;2022-07-06T13:56:54;4.35;;;2.80;;
18340;SDS011;9296;48.084;16.352;2022-07-06T13:59:22;4.00;;;2.92;;
18340;SDS011;9296;48.084;16.352;2022-07-06T14:01:49;5.40;;;2.50;;
18340;SDS011;9296;48.084;16.352;2022-07-06T14:04:16;4.68;;;2.42;;
18340;SDS011;9296;48.084;16.352;2022-07-06T14:06:45;4.47;;;2.50;;
18340;SDS011;9296;48.084;16.352;2022-07-06T14:09:12;2.53;;;2.30;;
18340;SDS011;9296;48.084;16.352;2022-07-06T14:14:45;2.65;;;2.00;;
18340;SDS011;9296;48.084;16.352;2022-07-06T14:17:13;3.65;;;2.47;;
18340;SDS011;9296;48.084;16.352;2022-07-06T14:19:40;3.75;;;2.40;;
18340;SDS011;9296;48.084;16.352;2022-07-06T14:22:09;2.33;;;2.13;;
18340;SDS011;9296;48.084;16.352;2022-07-06T14:24:36;3.97;;;2.28;;
18340;SDS011;9296;48.084;16.352;2022-07-06T14:27:03;3.05;;;2.30;;
18340;SDS011;9296;48.084;16.352;2022-07-06T14:29:31;3.10;;;2.35;;
18340;SDS011;9296;48.084;16.352;2022-07-06T14:31:58;3.22;;;2.30;;
18340;SDS011;9296;48.084;16.352;2022-07-06T14:34:25;4.63;;;2.45;;
18340;SDS011;9296;48.084;16.352;2022-07-06T14:36:52;3.50;;;2.35;;
18340;SDS011;9296;48.084;16.352;2022-07-06T14:39:21;2.38;;;2.17;;
18340;SDS011;9296;48.084;16.352;2022-07-06T14:44:55;2.78;;;2.58;;
18340;SDS011;9296;48.084;16.352;2022-07-06T14:47:22;3.92;;;3.05;;
18340;SDS011;9296;48.084;16.352;2022-07-06T14:49:49;3.60;;;2.85;;
18340;SDS011;9296;48.084;16.352;2022-07-06T14:52:17;3.10;;;2.80;;
18340;SDS011;9296;48.084;16.352;2022-07-06T14:54:46;3.28;;;2.97;;
18340;SDS011;9296;48.084;16.352;2022-07-06T15:00:16;2.78;;;2.58;;
18340;SDS011;9296;48.084;16.352;2022-07-06T15:02:44;2.83;;;2.63;;
18340;SDS011;9296;48.084;16.352;2022-07-06T15:05:11;3.10;;;2.60;;
18340;SDS011;9296;48.084;16.352;2022-07-06T15:07:38;2.65;;;2.45;;
18340;SDS011;9296;48.084;16.352;2022-07-06T15:10:08;2.90;;;2.55;;
18340;SDS011;9296;48.084;16.352;2022-07-06T15:18:45;2.90;;;2.38;;
18340;SDS011;9296;48.084;16.352;2022-07-06T15:21:12;2.58;;;2.20;;
18340;SDS011;9296;48.084;16.352;2022-07-06T15:23:40;2.67;;;2.10;;
18340;SDS011;9296;48.084;16.352;2022-07-06T15:32:16;2.20;;;2.00;;
18340;SDS011;9296;48.084;16.352;2022-07-06T15:34:43;2.65;;;1.90;;
18340;SDS011;9296;48.084;16.352;2022-07-06T15:37:10;1.95;;;1.80;;
18340;SDS011;9296;48.084;16.352;2022-07-06T15:39:37;2.03;;;1.77;;
18340;SDS011;9296;48.084;16.352;2022-07-06T15:42:05;1.77;;;1.65;;
18340;SDS011;9296;48.084;16.352;2022-07-06T15:44:32;3.03;;;1.65;;
18340;SDS011;9296;48.084;16.352;2022-07-06T15:47:03;1.75;;;1.50;;
18340;SDS011;9296;48.084;16.352;2022-07-06T15:49:32;2.60;;;1.42;;
18340;SDS011;9296;48.084;16.352;2022-07-06T15:52:00;1.75;;;1.20;;
18340;SDS011;9296;48.084;16.352;2022-07-06T15:54:27;1.40;;;1.30;;
18340;SDS011;9296;48.084;16.352;2022-07-06T15:56:55;2.42;;;1.60;;
18340;SDS011;9296;48.084;16.352;2022-07-06T15:59:22;2.08;;;1.58;;
18340;SDS011;9296;48.084;16.352;2022-07-06T16:01:49;1.50;;;1.40;;
18340;SDS011;9296;48.084;16.352;2022-07-06T16:04:16;1.60;;;1.30;;
18340;SDS011;9296;48.084;16.352;2022-07-06T16:06:45;1.60;;;1.40;;
18340;SDS011;9296;48.084;16.352;2022-07-06T16:09:12;2.45;;;1.73;;
18340;SDS011;9296;48.084;16.352;2022-07-06T16:14:25;1.45;;;1.35;;
18340;SDS011;9296;48.084;16.352;2022-07-06T16:16:52;1.35;;;1.20;;
18340;SDS011;9296;48.084;16.352;2022-07-06T16:19:20;4.18;;;1.40;;
18340;SDS011;9296;48.084;16.352;2022-07-06T16:21:48;1.85;;;1.40;;
18340;SDS011;9296;48.084;16.352;2022-07-06T16:24:16;1.10;;;1.10;;
18340;SDS011;9296;48.084;16.352;2022-07-06T16:26:43;1.77;;;1.40;;
18340;SDS011;9296;48.084;16.352;2022-07-06T16:29:10;1.70;;;1.60;;
18340;SDS011;9296;48.084;16.352;2022-07-06T16:31:37;3.33;;;1.55;;
18340;SDS011;9296;48.084;16.352;2022-07-06T16:34:05;1.70;;;1.30;;
18340;SDS011;9296;48.084;16.352;2022-07-06T16:36:32;2.40;;;1.77;;
18340;SDS011;9296;48.084;16.352;2022-07-06T16:39:01;1.60;;;1.42;;
18340;SDS011;9296;48.084;16.352;2022-07-06T16:44:32;1.67;;;1.58;;
18340;SDS011;9296;48.084;16.352;2022-07-06T16:46:59;1.75;;;1.40;;
18340;SDS011;9296;48.084;16.352;2022-07-06T16:49:40;1.98;;;1.52;;
18340;SDS011;9296;48.084;16.352;2022-07-06T16:52:16;1.77;;;1.60;;
18340;SDS011;9296;48.084;16.352;2022-07-06T16:54:45;3.42;;;1.55;;
18340;SDS011;9296;48.084;16.352;2022-07-06T17:00:19;3.80;;;1.60;;
18340;SDS011;9296;48.084;16.352;2022-07-06T17:02:46;1.80;;;1.70;;
18340;SDS011;9296;48.084;16.352;2022-07-06T17:05:13;1.75;;;1.52;;
18340;SDS011;9296;48.084;16.352;2022-07-06T17:07:40;1.83;;;1.73;;
18340;SDS011;9296;48.084;16.352;2022-07-06T17:10:09;1.63;;;1.30;;
18340;SDS011;9296;48.084;16.352;2022-07-06T17:12:37;2.28;;;1.50;;
18340;SDS011;9296;48.084;16.352;2022-07-06T17:15:04;1.65;;;1.45;;
18340;SDS011;9296;48.084;16.352;2022-07-06T17:17:32;1.67;;;1.58;;
18340;SDS011;9296;48.084;16.352;2022-07-06T17:19:59;2.55;;;1.58;;
18340;SDS011;9296;48.084;16.352;2022-07-06T17:22:26;1.65;;;1.45;;
18340;SDS011;9296;48.084;16.352;2022-07-06T17:24:53;1.80;;;1.50;;
18340;SDS011;9296;48.084;16.352;2022-07-06T17:27:22;2.25;;;1.80;;
18340;SDS011;9296;48.084;16.352;2022-07-06T17:29:49;2.65;;;1.58;;
18340;SDS011;9296;48.084;16.352;2022-07-06T17:32:17;2.88;;;1.60;;
18340;SDS011;9296;48.084;16.352;2022-07-06T17:34:44;2.67;;;1.60;;
18340;SDS011;9296;48.084;16.352;2022-07-06T17:37:11;2.42;;;1.85;;
18340;SDS011;9296;48.084;16.352;2022-07-06T17:39:39;3.30;;;1.80;;
18340;SDS011;9296;48.084;16.352;2022-07-06T17:42:06;2.00;;;1.80;;
18340;SDS011;9296;48.084;16.352;2022-07-06T17:44:36;1.90;;;1.80;;